createdAt,value
2022-08-17T00:00:04.777Z,99242.72
2022-08-17T00:02:56.294Z,99245.47
2022-08-17T00:05:24.041Z,99240.25
2022-08-17T00:07:51.605Z,99244.72
2022-08-17T00:10:19.487Z,99243.44
2022-08-17T00:12:47.220Z,99246.31
2022-08-17T00:15:15.078Z,99245.34
2022-08-17T00:17:42.774Z,99245.63
2022-08-17T00:20:12.124Z,99240.13
2022-08-17T00:22:39.479Z,99238.94
2022-08-17T00:25:12.011Z,99244.50
2022-08-17T00:27:39.897Z,99241.72
2022-08-17T00:30:10.327Z,99239.19
2022-08-17T00:33:14.033Z,99241.59
2022-08-17T00:35:27.875Z,99242.69
2022-08-17T00:37:55.400Z,99247.56
2022-08-17T00:40:24.715Z,99237.22
2022-08-17T00:42:53.386Z,99243.84
2022-08-17T00:45:22.020Z,99246.50
2022-08-17T00:47:49.569Z,99246.78
2022-08-17T00:50:18.862Z,99250.16
2022-08-17T00:52:52.049Z,99249.34
2022-08-17T00:55:20.110Z,99247.50
2022-08-17T00:57:55.080Z,99251.69
2022-08-17T01:00:31.919Z,99243.16
2022-08-17T01:03:04.220Z,99249.78
2022-08-17T01:05:34.109Z,99249.19
2022-08-17T01:08:02.538Z,99250.91
2022-08-17T01:10:59.457Z,99252.84
2022-08-17T01:13:41.796Z,99258.72
2022-08-17T01:16:20.672Z,99265.75
2022-08-17T01:18:51.167Z,99267.97
2022-08-17T01:21:24.191Z,99268.38
2022-08-17T01:23:51.868Z,99265.50
2022-08-17T01:26:19.433Z,99260.84
2022-08-17T01:28:55.404Z,99267.59
2022-08-17T01:31:25.421Z,99274.75
2022-08-17T01:33:52.950Z,99271.31
2022-08-17T01:36:20.648Z,99270.13
2022-08-17T01:38:48.326Z,99269.72
2022-08-17T01:41:16.797Z,99272.50
2022-08-17T01:44:10.564Z,99266.03
2022-08-17T01:46:38.283Z,99274.25
2022-08-17T01:49:08.470Z,99272.50
2022-08-17T01:51:35.884Z,99270.03
2022-08-17T01:54:06.408Z,99271.56
2022-08-17T01:56:35.896Z,99275.44
2022-08-17T01:59:04.243Z,99274.97
2022-08-17T02:01:33.693Z,99272.22
2022-08-17T02:04:02.202Z,99269.84
2022-08-17T02:06:45.303Z,99269.28
2022-08-17T02:09:25.590Z,99271.94
2022-08-17T02:11:55.184Z,99267.97
2022-08-17T02:14:24.935Z,99269.69
2022-08-17T02:16:53.103Z,99276.53
2022-08-17T02:19:21.796Z,99260.78
2022-08-17T02:21:51.491Z,99260.50
2022-08-17T02:24:58.475Z,99264.41
2022-08-17T02:27:14.229Z,99255.84
2022-08-17T02:29:41.695Z,99260.59
2022-08-17T02:32:20.818Z,99260.59
2022-08-17T02:34:58.843Z,99260.59
2022-08-17T02:37:27.552Z,99264.88
2022-08-17T02:39:57.161Z,99263.44
2022-08-17T02:42:39.664Z,99268.47
2022-08-17T02:45:12.195Z,99269.50
2022-08-17T02:47:40.239Z,99261.94
2022-08-17T02:50:09.661Z,99259.66
2022-08-17T02:53:01.966Z,99263.28
2022-08-17T02:55:30.585Z,99265.81
2022-08-17T02:57:57.985Z,99263.34
2022-08-17T03:00:33.851Z,99257.97
2022-08-17T03:03:04.198Z,99262.13
2022-08-17T03:05:33.309Z,99266.97
2022-08-17T03:08:01.100Z,99273.12
2022-08-17T03:10:29.711Z,99269.91
2022-08-17T03:12:57.463Z,99276.53
2022-08-17T03:15:27.370Z,99272.56
2022-08-17T03:17:56.680Z,99276.56
2022-08-17T03:20:25.856Z,99275.31
2022-08-17T03:22:55.167Z,99270.78
2022-08-17T03:25:33.502Z,99276.63
2022-08-17T03:28:02.645Z,99275.78
2022-08-17T03:30:30.601Z,99273.25
2022-08-17T03:33:00.128Z,99277.41
2022-08-17T03:35:30.543Z,99274.38
2022-08-17T03:38:00.915Z,99276.13
2022-08-17T03:40:34.616Z,99275.34
2022-08-17T03:43:17.661Z,99279.22
2022-08-17T03:46:04.261Z,99279.53
2022-08-17T03:48:52.183Z,99285.53
2022-08-17T03:51:41.669Z,99286.41
2022-08-17T03:54:28.537Z,99289.41
2022-08-17T03:57:09.898Z,99285.44
2022-08-17T03:59:38.400Z,99291.72
2022-08-17T04:02:11.088Z,99295.00
2022-08-17T04:04:38.664Z,99288.94
2022-08-17T04:07:06.167Z,99280.69
2022-08-17T04:09:33.817Z,99289.41
2022-08-17T04:12:04.656Z,99295.81
2022-08-17T04:14:36.433Z,99297.88
2022-08-17T04:17:17.069Z,99296.75
2022-08-17T04:19:45.800Z,99300.53
2022-08-17T04:22:31.073Z,99299.41
2022-08-17T04:25:20.026Z,99300.59
2022-08-17T04:27:48.701Z,99296.16
2022-08-17T04:30:16.960Z,99311.41
2022-08-17T04:33:05.367Z,99312.16
2022-08-17T04:35:41.225Z,99307.66
2022-08-17T04:38:10.525Z,99309.16
2022-08-17T04:40:57.150Z,99302.88
2022-08-17T04:43:26.212Z,99305.75
2022-08-17T04:45:57.299Z,99307.44
2022-08-17T04:48:35.956Z,99312.00
2022-08-17T04:51:15.722Z,99308.13
2022-08-17T04:53:45.264Z,99313.91
2022-08-17T04:56:16.889Z,99314.59
2022-08-17T04:58:49.826Z,99316.19
2022-08-17T05:01:23.133Z,99319.97
2022-08-17T05:03:54.351Z,99325.22
2022-08-17T05:06:22.756Z,99330.16
2022-08-17T05:08:50.123Z,99331.56
2022-08-17T05:11:18.001Z,99333.44
2022-08-17T05:13:45.608Z,99336.94
2022-08-17T05:16:12.979Z,99346.13
2022-08-17T05:18:40.300Z,99344.31
2022-08-17T05:21:08.111Z,99346.37
2022-08-17T05:23:42.958Z,99336.97
2022-08-17T05:26:25.503Z,99342.66
2022-08-17T05:28:59.841Z,99335.66
2022-08-17T05:31:29.354Z,99336.66
2022-08-17T05:33:57.016Z,99336.72
2022-08-17T05:36:42.985Z,99340.69
2022-08-17T05:39:16.292Z,99337.59
2022-08-17T05:41:46.536Z,99336.88
2022-08-17T05:44:14.691Z,99346.06
2022-08-17T05:46:43.950Z,99333.38
2022-08-17T05:49:11.931Z,99343.16
2022-08-17T05:51:48.598Z,99344.03
2022-08-17T05:54:34.325Z,99345.94
2022-08-17T05:57:12.492Z,99345.41
2022-08-17T05:59:48.551Z,99351.16
2022-08-17T06:02:31.268Z,99344.31
2022-08-17T06:05:11.076Z,99347.13
2022-08-17T06:07:45.180Z,99340.88
2022-08-17T06:10:23.698Z,99351.13
2022-08-17T06:13:15.990Z,99343.19
2022-08-17T06:15:58.658Z,99337.13
2022-08-17T06:18:29.804Z,99347.09
2022-08-17T06:21:00.913Z,99345.06
2022-08-17T06:23:41.161Z,99338.19
2022-08-17T06:26:14.412Z,99347.72
2022-08-17T06:28:49.441Z,99342.50
2022-08-17T06:31:23.154Z,99346.72
2022-08-17T06:33:50.565Z,99344.72
2022-08-17T06:36:30.206Z,99346.31
2022-08-17T06:39:16.381Z,99339.19
2022-08-17T06:42:02.809Z,99350.84
2022-08-17T06:44:42.320Z,99353.44
2022-08-17T06:47:30.026Z,99355.72
2022-08-17T06:50:20.960Z,99362.59
2022-08-17T06:53:17.888Z,99363.91
2022-08-17T06:55:49.813Z,99362.13
2022-08-17T06:58:21.648Z,99363.16
2022-08-17T07:00:55.314Z,99359.81
2022-08-17T07:03:33.325Z,99363.38
2022-08-17T07:06:17.553Z,99362.66
2022-08-17T07:09:02.429Z,99356.44
2022-08-17T07:11:55.111Z,99354.47
2022-08-17T07:14:50.082Z,99356.69
2022-08-17T07:17:18.540Z,99351.56
2022-08-17T07:19:48.595Z,99349.94
2022-08-17T07:22:21.691Z,99356.44
2022-08-17T07:24:58.311Z,99358.25
2022-08-17T07:27:31.388Z,99358.06
2022-08-17T07:30:11.732Z,99348.38
2022-08-17T07:32:42.987Z,99353.47
2022-08-17T07:35:20.005Z,99351.47
2022-08-17T07:37:56.063Z,99350.59
2022-08-17T07:40:27.987Z,99350.66
2022-08-17T07:43:21.912Z,99353.97
2022-08-17T07:46:16.645Z,99346.25
2022-08-17T07:48:49.579Z,99358.56
2022-08-17T07:51:20.933Z,99343.53
2022-08-17T07:53:48.705Z,99349.38
2022-08-17T07:56:34.792Z,99347.63
2022-08-17T07:59:23.026Z,99355.38
2022-08-17T08:01:57.927Z,99357.78
2022-08-17T08:04:50.029Z,99352.06
2022-08-17T08:07:17.818Z,99353.25
2022-08-17T08:09:59.615Z,99346.47
2022-08-17T08:12:40.011Z,99352.53
2022-08-17T08:15:14.127Z,99354.78
2022-08-17T08:17:50.511Z,99349.81
2022-08-17T08:20:37.761Z,99342.81
2022-08-17T08:23:12.019Z,99345.22
2022-08-17T08:25:59.363Z,99349.44
2022-08-17T08:28:44.496Z,99349.16
2022-08-17T08:31:14.961Z,99348.28
2022-08-17T08:34:58.785Z,99348.91
2022-08-17T08:37:19.294Z,99347.97
2022-08-17T08:40:11.386Z,99347.31
2022-08-17T08:43:16.560Z,99344.19
2022-08-17T08:46:19.735Z,99350.00
2022-08-17T08:49:45.072Z,99340.69
2022-08-17T08:52:34.063Z,99338.25
2022-08-17T08:55:24.175Z,99349.62
2022-08-17T08:58:03.200Z,99347.31
2022-08-17T09:00:35.822Z,99343.09
2022-08-17T09:03:31.583Z,99343.47
2022-08-17T09:06:33.223Z,99343.88
2022-08-17T09:09:36.191Z,99346.66
2022-08-17T09:12:09.807Z,99352.09
2022-08-17T09:14:57.763Z,99345.72
2022-08-17T09:17:35.725Z,99342.59
2022-08-17T09:20:27.658Z,99348.75
2022-08-17T09:23:07.075Z,99361.03
2022-08-17T09:25:49.790Z,99346.19
2022-08-17T09:28:20.261Z,99355.28
2022-08-17T09:30:50.801Z,99355.34
2022-08-17T09:33:26.909Z,99352.34
2022-08-17T09:35:58.599Z,99354.19
2022-08-17T09:38:44.375Z,99347.59
2022-08-17T09:41:22.404Z,99352.41
2022-08-17T09:44:02.754Z,99343.09
2022-08-17T09:46:38.991Z,99339.75
2022-08-17T09:49:10.206Z,99333.13
2022-08-17T09:51:49.073Z,99335.53
2022-08-17T09:54:42.258Z,99332.16
2022-08-17T09:57:40.411Z,99327.41
2022-08-17T10:00:17.369Z,99334.19
2022-08-17T10:03:10.156Z,99333.19
2022-08-17T10:05:46.290Z,99331.63
2022-08-17T10:08:36.110Z,99328.41
2022-08-17T10:11:33.425Z,99330.78
2022-08-17T10:14:37.607Z,99338.19
2022-08-17T10:17:19.569Z,99338.00
2022-08-17T10:19:59.293Z,99336.00
2022-08-17T10:22:53.278Z,99334.62
2022-08-17T10:25:54.502Z,99332.44
2022-08-17T10:28:29.825Z,99326.81
2022-08-17T10:31:30.758Z,99327.25
2022-08-17T10:34:07.424Z,99320.72
2022-08-17T10:36:48.266Z,99323.56
2022-08-17T10:39:50.518Z,99327.94
2022-08-17T10:42:46.057Z,99327.78
2022-08-17T10:45:26.345Z,99325.75
2022-08-17T10:48:05.234Z,99327.69
2022-08-17T10:51:02.030Z,99327.28
2022-08-17T10:53:32.451Z,99325.88
2022-08-17T10:56:11.916Z,99316.47
2022-08-17T10:59:00.594Z,99316.44
2022-08-17T11:01:33.936Z,99310.94
2022-08-17T11:04:08.764Z,99306.87
2022-08-17T11:06:38.837Z,99301.94
2022-08-17T11:09:28.786Z,99309.22
2022-08-17T11:12:07.169Z,99306.13
2022-08-17T11:15:01.769Z,99309.66
2022-08-17T11:17:38.877Z,99315.41
2022-08-17T11:20:24.091Z,99325.31
2022-08-17T11:23:13.304Z,99310.38
2022-08-17T11:25:45.019Z,99304.16
2022-08-17T11:28:15.273Z,99299.94
2022-08-17T11:30:48.600Z,99300.37
2022-08-17T11:33:38.035Z,99298.34
2022-08-17T11:36:14.667Z,99292.53
2022-08-17T11:38:47.928Z,99294.88
2022-08-17T11:41:33.696Z,99296.28
2022-08-17T11:44:32.554Z,99285.13
2022-08-17T11:48:02.470Z,99288.47
2022-08-17T11:51:05.419Z,99287.63
2022-08-17T11:53:39.121Z,99284.91
2022-08-17T11:56:31.730Z,99281.00
2022-08-17T11:59:00.659Z,99266.53
2022-08-17T12:01:28.941Z,99267.50
2022-08-17T12:04:16.393Z,99276.34
2022-08-17T12:06:48.679Z,99275.94
2022-08-17T12:09:26.249Z,99276.50
2022-08-17T12:12:12.627Z,99268.87
2022-08-17T12:17:40.658Z,99270.97
2022-08-17T12:20:21.417Z,99275.34
2022-08-17T12:23:05.429Z,99267.59
2022-08-17T12:25:56.694Z,99265.34
2022-08-17T12:28:27.356Z,99248.41
2022-08-17T12:30:58.610Z,99251.12
2022-08-17T12:33:28.921Z,99251.78
2022-08-17T12:36:08.655Z,99257.97
2022-08-17T12:38:37.418Z,99252.09
2022-08-17T12:41:25.755Z,99253.16
2022-08-17T12:44:21.419Z,99255.75
2022-08-17T12:46:53.329Z,99245.72
2022-08-17T12:49:22.822Z,99244.72
2022-08-17T12:51:51.790Z,99251.50
2022-08-17T12:54:27.350Z,99243.62
2022-08-17T12:56:55.249Z,99246.06
2022-08-17T12:59:29.769Z,99243.00
2022-08-17T13:01:59.514Z,99256.38
2022-08-17T13:04:29.536Z,99243.97
2022-08-17T13:06:59.734Z,99250.72
2022-08-17T13:09:35.630Z,99243.66
2022-08-17T13:12:07.812Z,99240.47
2022-08-17T13:14:35.607Z,99253.19
2022-08-17T13:17:08.570Z,99233.00
2022-08-17T13:19:48.527Z,99243.31
2022-08-17T13:22:15.876Z,99239.66
2022-08-17T13:24:58.720Z,99241.09
2022-08-17T13:27:27.778Z,99235.31
2022-08-17T13:29:59.618Z,99229.09
2022-08-17T13:32:46.345Z,99243.31
2022-08-17T13:35:34.481Z,99233.78
2022-08-17T13:38:17.001Z,99229.97
2022-08-17T13:40:45.861Z,99237.63
2022-08-17T13:43:44.747Z,99228.09
2022-08-17T13:46:21.134Z,99224.28
2022-08-17T13:49:06.152Z,99241.19
2022-08-17T13:51:36.380Z,99223.31
2022-08-17T13:54:06.018Z,99226.41
2022-08-17T13:56:39.780Z,99229.78
2022-08-17T13:59:53.500Z,99236.44
2022-08-17T14:02:25.967Z,99231.56
2022-08-17T14:04:56.999Z,99222.97
2022-08-17T14:07:31.536Z,99228.03
2022-08-17T14:10:03.979Z,99234.16
2022-08-17T14:12:33.612Z,99220.38
2022-08-17T14:15:02.212Z,99225.34
2022-08-17T14:17:34.945Z,99222.97
2022-08-17T14:20:09.480Z,99219.16
2022-08-17T14:22:39.359Z,99223.87
2022-08-17T14:25:08.673Z,99225.69
2022-08-17T14:27:51.936Z,99227.03
2022-08-17T14:30:23.854Z,99217.88
2022-08-17T14:32:52.102Z,99220.62
2022-08-17T14:35:22.533Z,99229.16
2022-08-17T14:37:51.792Z,99220.62
2022-08-17T14:40:20.826Z,99215.91
2022-08-17T14:42:48.330Z,99218.91
2022-08-17T14:45:30.336Z,99220.28
2022-08-17T14:48:03.962Z,99220.62
2022-08-17T14:50:32.059Z,99203.47
2022-08-17T14:53:04.397Z,99214.91
2022-08-17T14:55:32.669Z,99215.94
2022-08-17T14:58:00.074Z,99219.47
2022-08-17T15:00:28.385Z,99210.19
2022-08-17T15:02:58.198Z,99214.91
2022-08-17T15:05:33.467Z,99208.00
2022-08-17T15:08:02.186Z,99210.25
2022-08-17T15:10:30.352Z,99209.84
2022-08-17T15:12:58.122Z,99204.03
2022-08-17T15:15:26.528Z,99211.91
2022-08-17T15:17:54.310Z,99200.31
2022-08-17T15:20:25.055Z,99204.53
2022-08-17T15:22:56.044Z,99203.22
2022-08-17T15:25:27.451Z,99209.69
2022-08-17T15:27:55.894Z,99205.06
2022-08-17T15:30:25.613Z,99212.53
2022-08-17T15:32:55.268Z,99206.94
2022-08-17T15:35:28.234Z,99206.44
2022-08-17T15:37:57.958Z,99204.59
2022-08-17T15:40:25.586Z,99208.47
2022-08-17T15:42:52.975Z,99218.16
2022-08-17T15:45:24.512Z,99207.31
2022-08-17T15:47:53.311Z,99211.38
2022-08-17T15:50:21.094Z,99213.44
2022-08-17T15:52:54.732Z,99212.22
2022-08-17T15:55:24.293Z,99212.06
2022-08-17T15:57:52.255Z,99208.87
2022-08-17T16:00:20.561Z,99213.44
2022-08-17T16:03:22.920Z,99209.91
2022-08-17T16:05:35.987Z,99216.16
2022-08-17T16:08:04.723Z,99213.31
2022-08-17T16:10:33.948Z,99211.47
2022-08-17T16:13:04.080Z,99215.03
2022-08-17T16:15:32.162Z,99212.12
2022-08-17T16:17:59.629Z,99215.03
2022-08-17T16:20:27.357Z,99212.12
2022-08-17T16:22:55.460Z,99215.16
2022-08-17T16:25:52.367Z,99207.91
2022-08-17T16:28:16.488Z,99209.09
2022-08-17T16:30:44.127Z,99207.41
2022-08-17T16:33:12.395Z,99205.72
2022-08-17T16:35:41.956Z,99208.44
2022-08-17T16:38:09.578Z,99197.28
2022-08-17T16:40:37.237Z,99198.97
2022-08-17T16:43:10.396Z,99204.91
2022-08-17T16:45:40.367Z,99195.63
2022-08-17T16:48:09.296Z,99202.03
2022-08-17T16:50:37.320Z,99200.31
2022-08-17T16:53:10.584Z,99208.81
2022-08-17T16:55:38.742Z,99209.63
2022-08-17T16:58:06.770Z,99205.75
2022-08-17T17:00:34.676Z,99210.66
2022-08-17T17:03:21.108Z,99212.53
2022-08-17T17:05:57.685Z,99203.38
2022-08-17T17:08:46.731Z,99205.72
2022-08-17T17:11:18.748Z,99209.63
2022-08-17T17:13:53.968Z,99209.44
2022-08-17T17:16:53.030Z,99207.41
2022-08-17T17:19:35.549Z,99218.53
2022-08-17T17:22:26.248Z,99220.16
2022-08-17T17:25:09.224Z,99221.50
2022-08-17T17:27:56.121Z,99226.19
2022-08-17T17:30:27.586Z,99229.91
2022-08-17T17:32:59.648Z,99230.22
2022-08-17T17:35:32.046Z,99235.88
2022-08-17T17:38:07.917Z,99226.56
2022-08-17T17:40:39.468Z,99230.94
2022-08-17T17:43:35.238Z,99237.31
2022-08-17T17:46:27.997Z,99242.94
2022-08-17T17:48:57.593Z,99245.72
2022-08-17T17:52:03.618Z,99254.06
2022-08-17T17:54:52.512Z,99257.38
2022-08-17T17:57:33.215Z,99255.91
2022-08-17T18:00:23.546Z,99257.06
2022-08-17T18:03:12.469Z,99254.75
2022-08-17T18:05:52.594Z,99256.91
2022-08-17T18:08:38.897Z,99262.13
2022-08-17T18:11:25.574Z,99256.91
2022-08-17T18:14:29.468Z,99271.44
2022-08-17T18:16:59.247Z,99270.09
2022-08-17T18:19:28.881Z,99273.88
2022-08-17T18:22:06.728Z,99278.31
2022-08-17T18:24:37.984Z,99283.87
2022-08-17T18:27:19.652Z,99291.16
2022-08-17T18:29:47.460Z,99291.03
2022-08-17T18:32:31.377Z,99296.97
2022-08-17T18:35:04.674Z,99292.87
2022-08-17T18:37:34.578Z,99297.31
2022-08-17T18:40:36.056Z,99296.34
2022-08-17T18:43:13.750Z,99299.31
2022-08-17T18:45:42.752Z,99308.09
2022-08-17T18:48:36.524Z,99301.75
2022-08-17T18:51:39.809Z,99311.19
2022-08-17T18:54:22.507Z,99307.22
2022-08-17T18:56:54.650Z,99309.22
2022-08-17T18:59:27.531Z,99315.97
2022-08-17T19:02:24.260Z,99313.41
2022-08-17T19:05:00.676Z,99308.03
2022-08-17T19:07:34.384Z,99310.97
2022-08-17T19:10:17.368Z,99313.06
2022-08-17T19:12:53.040Z,99317.44
2022-08-17T19:15:34.769Z,99307.59
2022-08-17T19:18:16.457Z,99320.56
2022-08-17T19:20:47.944Z,99319.47
2022-08-17T19:23:17.386Z,99322.25
2022-08-17T19:25:48.722Z,99320.53
2022-08-17T19:28:22.357Z,99321.53
2022-08-17T19:31:04.860Z,99317.97
2022-08-17T19:33:32.588Z,99321.59
2022-08-17T19:36:02.751Z,99330.56
2022-08-17T19:39:08.808Z,99332.63
2022-08-17T19:41:43.716Z,99319.59
2022-08-17T19:44:39.356Z,99320.53
2022-08-17T19:47:43.113Z,99318.31
2022-08-17T19:50:09.051Z,99316.47
2022-08-17T19:52:42.995Z,99317.19
2022-08-17T19:55:35.820Z,99322.50
2022-08-17T19:58:25.355Z,99323.53
2022-08-17T20:00:53.175Z,99323.59
2022-08-17T20:03:35.727Z,99324.19
2022-08-17T20:06:13.847Z,99320.19
2022-08-17T20:09:05.197Z,99316.31
2022-08-17T20:11:43.891Z,99314.13
2022-08-17T20:14:20.844Z,99320.56
2022-08-17T20:16:48.286Z,99317.09
2022-08-17T20:20:19.641Z,99313.31
2022-08-17T20:22:55.066Z,99317.22
2022-08-17T20:25:30.882Z,99318.72
2022-08-17T20:28:06.375Z,99316.41
2022-08-17T20:30:42.739Z,99322.41
2022-08-17T20:33:36.748Z,99318.53
2022-08-17T20:36:12.783Z,99312.53
2022-08-17T20:38:46.216Z,99312.03
2022-08-17T20:41:17.101Z,99315.09
2022-08-17T20:43:58.822Z,99310.50
2022-08-17T20:46:28.959Z,99304.66
2022-08-17T20:48:59.692Z,99303.66
2022-08-17T20:51:39.431Z,99309.53
2022-08-17T20:54:27.215Z,99307.94
2022-08-17T20:56:57.218Z,99301.50
2022-08-17T20:59:25.673Z,99296.44
2022-08-17T21:02:06.632Z,99303.97
2022-08-17T21:04:51.280Z,99309.19
2022-08-17T21:07:42.990Z,99299.81
2022-08-17T21:10:15.216Z,99308.84
2022-08-17T21:12:59.600Z,99315.34
2022-08-17T21:15:48.461Z,99312.69
2022-08-17T21:18:41.697Z,99299.91
2022-08-17T21:21:24.480Z,99305.63
2022-08-17T21:24:10.378Z,99300.78
2022-08-17T21:26:50.602Z,99307.56
2022-08-17T21:29:31.309Z,99309.88
2022-08-17T21:32:03.432Z,99316.41
2022-08-17T21:34:42.454Z,99314.31
2022-08-17T21:37:23.528Z,99314.81
2022-08-17T21:40:19.619Z,99328.38
2022-08-17T21:42:53.930Z,99321.88
2022-08-17T21:45:31.334Z,99322.59
2022-08-17T21:48:23.876Z,99321.38
2022-08-17T21:51:00.902Z,99322.31
2022-08-17T21:53:38.180Z,99322.22
2022-08-17T21:56:07.444Z,99322.13
2022-08-17T21:58:40.087Z,99327.47
2022-08-17T22:01:21.627Z,99333.41
2022-08-17T22:04:04.035Z,99336.19
2022-08-17T22:06:36.952Z,99344.34
2022-08-17T22:09:12.340Z,99345.50
2022-08-17T22:11:55.785Z,99350.69
2022-08-17T22:14:52.326Z,99360.28
2022-08-17T22:17:35.963Z,99359.78
2022-08-17T22:20:17.361Z,99360.81
2022-08-17T22:23:10.864Z,99357.69
2022-08-17T22:25:40.862Z,99358.69
2022-08-17T22:28:10.989Z,99362.34
2022-08-17T22:30:43.935Z,99371.78
2022-08-17T22:33:34.297Z,99363.75
2022-08-17T22:36:24.884Z,99373.25
2022-08-17T22:39:14.529Z,99369.31
2022-08-17T22:41:50.740Z,99369.63
2022-08-17T22:44:23.552Z,99372.84
2022-08-17T22:46:55.478Z,99369.22
2022-08-17T22:49:29.228Z,99369.09
2022-08-17T22:52:11.111Z,99371.78
2022-08-17T22:54:57.119Z,99377.97
2022-08-17T22:57:43.634Z,99388.63
2022-08-17T23:00:34.053Z,99391.37
2022-08-17T23:03:10.559Z,99390.38
2022-08-17T23:05:41.853Z,99389.50
2022-08-17T23:08:11.472Z,99393.88
2022-08-17T23:10:41.336Z,99397.00
2022-08-17T23:13:11.905Z,99389.72
2022-08-17T23:15:40.533Z,99401.38
2022-08-17T23:18:08.132Z,99402.78
2022-08-17T23:20:37.703Z,99401.19
2022-08-17T23:23:09.016Z,99406.06
2022-08-17T23:25:36.924Z,99405.13
2022-08-17T23:28:05.976Z,99403.94
2022-08-17T23:30:39.851Z,99421.53
2022-08-17T23:33:10.329Z,99406.81
2022-08-17T23:35:39.759Z,99398.41
2022-08-17T23:38:10.396Z,99389.47
2022-08-17T23:40:39.622Z,99389.78
2022-08-17T23:43:24.060Z,99394.25
2022-08-17T23:45:54.564Z,99392.94
2022-08-17T23:48:28.632Z,99384.41
2022-08-17T23:51:10.979Z,99382.06
2022-08-17T23:53:42.045Z,99387.41
2022-08-17T23:56:11.091Z,99387.19
2022-08-17T23:58:43.379Z,99385.28
